createdAt,value
2022-12-20T00:02:15.586Z,8.63
2022-12-20T00:04:44.357Z,10.27
2022-12-20T00:07:13.085Z,9.18
2022-12-20T00:09:43.936Z,15.23
2022-12-20T00:12:13.733Z,10.27
2022-12-20T00:14:43.604Z,8.38
2022-12-20T00:17:12.371Z,9.60
2022-12-20T00:19:42.361Z,8.25
2022-12-20T00:22:11.036Z,7.22
2022-12-20T00:24:39.942Z,9.63
2022-12-20T00:27:10.780Z,11.80
2022-12-20T00:29:40.103Z,7.30
2022-12-20T00:32:09.064Z,8.40
2022-12-20T00:34:37.734Z,10.27
2022-12-20T00:37:09.192Z,9.00
2022-12-20T00:39:37.882Z,10.60
2022-12-20T00:42:10.203Z,9.70
2022-12-20T00:44:39.447Z,9.98
2022-12-20T00:47:08.283Z,6.00
2022-12-20T00:49:38.758Z,9.48
2022-12-20T00:52:07.713Z,10.05
2022-12-20T00:54:36.634Z,7.80
2022-12-20T00:57:07.605Z,7.30
2022-12-20T00:59:38.101Z,7.63
2022-12-20T01:02:06.980Z,9.23
2022-12-20T01:04:35.653Z,11.07
2022-12-20T01:07:05.323Z,7.68
2022-12-20T01:09:34.497Z,6.75
2022-12-20T01:12:03.100Z,7.95
2022-12-20T01:14:31.816Z,7.82
2022-12-20T01:17:01.997Z,6.25
2022-12-20T01:19:31.000Z,8.65
2022-12-20T01:21:59.561Z,7.82
2022-12-20T01:24:31.266Z,8.90
2022-12-20T01:27:00.905Z,11.70
2022-12-20T01:29:30.570Z,5.85
2022-12-20T01:32:00.562Z,8.75
2022-12-20T01:34:32.253Z,11.30
2022-12-20T01:37:00.984Z,9.00
2022-12-20T01:39:31.518Z,8.93
2022-12-20T01:42:00.212Z,8.35
2022-12-20T01:45:00.175Z,8.38
2022-12-20T01:47:33.773Z,7.60
2022-12-20T01:50:06.141Z,8.20
2022-12-20T01:52:39.217Z,6.38
2022-12-20T01:55:14.433Z,5.40
2022-12-20T01:57:48.352Z,9.85
2022-12-20T02:00:23.357Z,7.40
2022-12-20T02:02:54.907Z,8.27
2022-12-20T02:05:26.078Z,6.03
2022-12-20T02:07:58.269Z,7.78
2022-12-20T02:10:42.415Z,9.90
2022-12-20T02:13:22.416Z,8.80
2022-12-20T02:15:57.213Z,6.60
2022-12-20T02:18:32.583Z,11.25
2022-12-20T02:24:28.417Z,7.47
2022-12-20T02:27:44.536Z,8.73
2022-12-20T02:30:17.698Z,8.00
2022-12-20T02:33:22.965Z,11.38
2022-12-20T02:35:51.652Z,6.93
2022-12-20T02:38:32.897Z,9.07
2022-12-20T02:41:11.309Z,9.52
2022-12-20T02:44:01.537Z,10.52
2022-12-20T02:46:33.734Z,10.73
2022-12-20T02:49:06.485Z,10.90
2022-12-20T02:51:36.293Z,9.57
2022-12-20T02:54:05.966Z,10.70
2022-12-20T02:56:39.631Z,11.73
2022-12-20T02:59:17.298Z,13.93
2022-12-20T03:01:52.438Z,12.73
2022-12-20T03:04:26.062Z,7.85
2022-12-20T03:07:01.827Z,7.10
2022-12-20T03:09:34.130Z,8.82
2022-12-20T03:12:04.954Z,9.10
2022-12-20T03:14:39.415Z,9.05
2022-12-20T03:17:10.133Z,7.43
2022-12-20T03:19:40.739Z,6.85
2022-12-20T03:22:09.435Z,8.35
2022-12-20T03:24:38.674Z,10.68
2022-12-20T03:27:07.241Z,9.80
2022-12-20T03:29:36.324Z,10.35
2022-12-20T03:32:09.321Z,7.72
2022-12-20T03:34:41.267Z,9.52
2022-12-20T03:37:11.082Z,8.70
2022-12-20T03:39:39.916Z,7.75
2022-12-20T03:42:08.782Z,8.73
2022-12-20T03:44:39.048Z,10.95
2022-12-20T03:47:09.295Z,8.75
2022-12-20T03:49:38.602Z,8.85
2022-12-20T03:52:08.631Z,8.13
2022-12-20T03:54:37.380Z,6.88
2022-12-20T03:57:06.532Z,8.20
2022-12-20T03:59:36.557Z,6.65
2022-12-20T04:02:08.408Z,7.03
2022-12-20T04:04:37.347Z,7.80
2022-12-20T04:07:05.785Z,9.27
2022-12-20T04:09:34.784Z,8.65
2022-12-20T04:12:06.157Z,10.07
2022-12-20T04:14:36.194Z,8.25
2022-12-20T04:17:06.209Z,6.13
2022-12-20T04:19:37.583Z,8.15
2022-12-20T04:22:06.537Z,7.53
2022-12-20T04:24:38.385Z,4.95
2022-12-20T04:27:08.317Z,6.65
2022-12-20T04:29:37.369Z,9.05
2022-12-20T04:32:07.632Z,8.80
2022-12-20T04:34:38.047Z,6.75
2022-12-20T04:37:06.802Z,8.35
2022-12-20T04:39:36.511Z,6.65
2022-12-20T04:42:05.642Z,9.55
2022-12-20T04:44:38.187Z,7.82
2022-12-20T04:47:07.436Z,8.32
2022-12-20T04:49:37.488Z,7.60
2022-12-20T04:52:20.760Z,9.00
2022-12-20T04:54:50.284Z,10.80
2022-12-20T04:57:19.255Z,5.68
2022-12-20T04:59:49.467Z,7.97
2022-12-20T05:02:18.811Z,8.52
2022-12-20T05:04:49.609Z,9.25
2022-12-20T05:07:20.200Z,12.05
2022-12-20T05:09:49.673Z,14.63
2022-12-20T05:12:18.321Z,8.65
2022-12-20T05:14:47.083Z,9.90
2022-12-20T05:17:17.330Z,7.38
2022-12-20T05:19:45.714Z,8.50
2022-12-20T05:22:33.669Z,8.18
2022-12-20T05:25:19.982Z,9.88
2022-12-20T05:27:48.580Z,10.50
2022-12-20T05:30:17.848Z,7.03
2022-12-20T05:32:46.915Z,8.10
2022-12-20T05:35:15.779Z,14.55
2022-12-20T05:37:45.721Z,9.60
2022-12-20T05:40:14.827Z,11.00
2022-12-20T05:42:44.039Z,7.25
2022-12-20T05:45:15.109Z,7.93
2022-12-20T05:47:43.803Z,10.02
2022-12-20T05:50:18.521Z,11.90
2022-12-20T05:55:20.636Z,10.98
2022-12-20T05:57:49.578Z,8.55
2022-12-20T06:00:18.593Z,11.57
2022-12-20T06:02:47.415Z,13.52
2022-12-20T06:05:16.519Z,10.05
2022-12-20T06:07:45.469Z,11.18
2022-12-20T06:10:19.711Z,11.82
2022-12-20T06:12:48.000Z,9.88
2022-12-20T06:15:16.982Z,9.55
2022-12-20T06:17:45.783Z,12.15
2022-12-20T06:20:14.877Z,13.05
2022-12-20T06:22:43.609Z,13.93
2022-12-20T06:25:15.443Z,8.73
2022-12-20T06:27:45.863Z,7.18
2022-12-20T06:30:15.664Z,8.65
2022-12-20T06:32:44.326Z,7.43
2022-12-20T06:35:13.305Z,4.57
2022-12-20T06:37:43.767Z,10.10
2022-12-20T06:40:14.897Z,10.60
2022-12-20T06:42:47.285Z,7.85
2022-12-20T06:45:16.532Z,11.90
2022-12-20T06:47:45.543Z,8.50
2022-12-20T06:50:18.968Z,9.15
2022-12-20T06:52:47.737Z,11.60
2022-12-20T06:55:17.062Z,7.00
2022-12-20T06:57:47.111Z,9.25
2022-12-20T07:00:17.816Z,9.82
2022-12-20T07:02:46.949Z,8.90
2022-12-20T07:05:15.969Z,12.73
2022-12-20T07:07:45.560Z,8.20
2022-12-20T07:10:19.377Z,8.30
2022-12-20T07:12:49.978Z,9.73
2022-12-20T07:15:18.877Z,10.25
2022-12-20T07:17:47.309Z,11.38
2022-12-20T07:20:16.905Z,8.05
2022-12-20T07:22:48.029Z,6.28
2022-12-20T07:25:16.978Z,9.60
2022-12-20T07:27:51.255Z,7.45
2022-12-20T07:30:21.388Z,8.82
2022-12-20T07:32:50.295Z,8.73
2022-12-20T07:35:20.840Z,9.88
2022-12-20T07:37:54.285Z,9.27
2022-12-20T07:40:25.710Z,9.50
2022-12-20T07:42:56.667Z,9.50
2022-12-20T07:45:26.695Z,9.48
2022-12-20T07:47:58.373Z,8.25
2022-12-20T07:50:38.295Z,10.63
2022-12-20T07:53:10.295Z,8.30
2022-12-20T07:55:40.390Z,7.82
2022-12-20T07:58:14.594Z,10.70
2022-12-20T08:00:43.449Z,8.52
2022-12-20T08:03:17.995Z,7.88
2022-12-20T08:05:52.404Z,5.70
2022-12-20T08:08:22.212Z,6.68
2022-12-20T08:10:53.094Z,8.80
2022-12-20T08:13:25.364Z,10.18
2022-12-20T08:15:54.309Z,8.82
2022-12-20T08:18:25.046Z,7.97
2022-12-20T08:20:54.276Z,5.35
2022-12-20T08:23:22.815Z,7.40
2022-12-20T08:25:51.652Z,5.50
2022-12-20T08:28:21.305Z,10.23
2022-12-20T08:30:51.238Z,7.28
2022-12-20T08:33:20.475Z,9.52
2022-12-20T08:35:49.030Z,6.55
2022-12-20T08:38:17.585Z,7.57
2022-12-20T08:40:48.871Z,8.73
2022-12-20T08:43:17.927Z,8.35
2022-12-20T08:45:49.505Z,11.45
2022-12-20T08:48:21.573Z,9.35
2022-12-20T08:50:56.422Z,12.15
2022-12-20T08:53:25.733Z,8.73
2022-12-20T08:55:55.312Z,7.47
2022-12-20T08:58:24.489Z,12.23
2022-12-20T09:00:54.257Z,12.30
2022-12-20T09:03:24.809Z,8.23
2022-12-20T09:05:53.677Z,9.18
2022-12-20T09:08:22.634Z,9.32
2022-12-20T09:10:52.481Z,10.65
2022-12-20T09:13:21.612Z,9.00
2022-12-20T09:15:50.197Z,13.27
2022-12-20T09:18:18.477Z,7.68
2022-12-20T09:20:48.747Z,7.68
2022-12-20T09:23:22.196Z,10.75
2022-12-20T09:25:54.001Z,8.35
2022-12-20T09:28:24.216Z,7.65
2022-12-20T09:30:53.751Z,10.90
2022-12-20T09:33:22.277Z,11.55
2022-12-20T09:35:52.528Z,9.45
2022-12-20T09:38:21.054Z,8.40
2022-12-20T09:40:52.284Z,9.27
2022-12-20T09:43:25.381Z,8.55
2022-12-20T09:45:58.739Z,8.00
2022-12-20T09:48:32.924Z,9.82
2022-12-20T09:51:22.391Z,11.70
2022-12-20T09:54:02.921Z,12.65
2022-12-20T09:56:38.597Z,9.48
2022-12-20T09:59:13.164Z,8.55
2022-12-20T10:01:47.376Z,10.65
2022-12-20T10:04:23.060Z,12.15
2022-12-20T10:07:10.199Z,11.43
2022-12-20T10:10:11.974Z,6.90
2022-12-20T10:12:50.993Z,11.55
2022-12-20T10:15:29.100Z,10.65
2022-12-20T10:18:52.481Z,12.13
2022-12-20T10:21:42.273Z,7.95
2022-12-20T10:24:21.131Z,14.65
2022-12-20T10:26:56.498Z,6.95
2022-12-20T10:31:56.423Z,11.27
2022-12-20T10:34:31.587Z,13.35
2022-12-20T10:37:18.625Z,9.32
2022-12-20T10:39:53.965Z,15.23
2022-12-20T10:45:11.360Z,9.00
2022-12-20T10:47:47.090Z,8.80
2022-12-20T10:53:24.506Z,11.57
2022-12-20T10:56:09.486Z,7.47
2022-12-20T10:58:39.575Z,12.68
2022-12-20T11:01:15.974Z,10.30
2022-12-20T11:03:59.023Z,12.23
2022-12-20T11:06:42.146Z,14.63
2022-12-20T11:09:30.266Z,10.10
2022-12-20T11:12:15.112Z,13.95
2022-12-20T11:14:49.646Z,15.30
2022-12-20T11:17:34.511Z,16.00
2022-12-20T11:20:27.029Z,13.57
2022-12-20T11:23:11.836Z,11.77
2022-12-20T11:26:03.200Z,11.55
2022-12-20T11:28:53.752Z,11.55
2022-12-20T11:31:35.641Z,13.68
2022-12-20T11:34:20.005Z,8.60
2022-12-20T11:37:11.052Z,18.17
2022-12-20T11:39:49.797Z,10.57
2022-12-20T11:42:29.179Z,11.15
2022-12-20T11:45:10.856Z,10.18
2022-12-20T11:48:23.425Z,12.00
2022-12-20T11:51:04.307Z,14.75
2022-12-20T11:53:44.758Z,8.63
2022-12-20T11:56:21.231Z,9.48
2022-12-20T11:58:57.993Z,11.40
2022-12-20T12:01:34.227Z,9.60
2022-12-20T12:04:13.689Z,12.13
2022-12-20T12:06:48.239Z,12.90
2022-12-20T12:09:27.892Z,13.88
2022-12-20T12:12:07.291Z,14.73
2022-12-20T12:15:01.291Z,11.80
2022-12-20T12:17:49.967Z,16.05
2022-12-20T12:20:36.650Z,12.45
2022-12-20T12:23:14.697Z,11.57
2022-12-20T12:25:44.282Z,15.27
2022-12-20T12:28:15.393Z,13.50
2022-12-20T12:30:51.856Z,12.63
2022-12-20T12:33:38.166Z,17.88
2022-12-20T12:36:41.371Z,14.32
2022-12-20T12:39:41.014Z,10.18
2022-12-20T12:42:56.980Z,10.50
2022-12-20T12:45:29.764Z,13.75
2022-12-20T12:48:04.240Z,12.80
2022-12-20T12:50:39.590Z,14.45
2022-12-20T12:55:45.858Z,13.30
2022-12-20T12:58:36.146Z,17.25
2022-12-20T13:01:10.229Z,16.45
2022-12-20T13:03:47.463Z,14.00
2022-12-20T13:06:57.193Z,16.10
2022-12-20T13:09:42.718Z,14.70
2022-12-20T13:12:50.462Z,16.73
2022-12-20T13:16:48.762Z,16.40
2022-12-20T13:19:20.895Z,17.10
2022-12-20T13:21:57.789Z,17.17
2022-12-20T13:24:42.512Z,18.58
2022-12-20T13:27:35.744Z,17.75
2022-12-20T13:30:30.652Z,22.98
2022-12-20T13:33:27.815Z,12.68
2022-12-20T13:36:47.762Z,15.23
2022-12-20T13:39:52.056Z,12.27
2022-12-20T13:42:39.630Z,21.90
2022-12-20T13:45:17.230Z,14.43
2022-12-20T13:47:55.401Z,16.98
2022-12-20T13:50:35.793Z,17.48
2022-12-20T13:53:05.742Z,16.80
2022-12-20T13:55:42.598Z,14.25
2022-12-20T13:58:20.056Z,16.08
2022-12-20T14:00:50.583Z,14.40
2022-12-20T14:03:25.440Z,13.23
2022-12-20T14:06:00.741Z,15.70
2022-12-20T14:08:34.055Z,17.85
2022-12-20T14:11:16.351Z,15.60
2022-12-20T14:13:58.036Z,15.20
2022-12-20T14:16:32.256Z,14.85
2022-12-20T14:19:05.798Z,14.27
2022-12-20T14:21:39.783Z,15.48
2022-12-20T14:24:17.413Z,13.35
2022-12-20T14:26:53.006Z,11.63
2022-12-20T14:29:32.631Z,13.48
2022-12-20T14:32:01.567Z,14.95
2022-12-20T14:34:39.636Z,14.75
2022-12-20T14:37:31.332Z,13.98
2022-12-20T14:40:04.372Z,12.20
2022-12-20T14:42:39.574Z,16.95
2022-12-20T14:45:21.878Z,15.60
2022-12-20T14:47:57.506Z,17.75
2022-12-20T14:50:34.215Z,14.40
2022-12-20T14:53:04.166Z,16.20
2022-12-20T14:55:40.657Z,17.48
2022-12-20T14:58:26.786Z,17.85
2022-12-20T15:01:02.293Z,16.92
2022-12-20T15:03:32.247Z,18.95
2022-12-20T15:06:01.885Z,19.17
2022-12-20T15:08:33.977Z,18.38
2022-12-20T15:11:13.620Z,16.80
2022-12-20T15:13:45.582Z,19.58
2022-12-20T15:16:19.769Z,23.95
2022-12-20T15:18:49.183Z,19.50
2022-12-20T15:21:23.438Z,18.45
2022-12-20T15:23:55.214Z,22.00
2022-12-20T15:26:26.885Z,21.48
2022-12-20T15:28:57.771Z,21.88
2022-12-20T15:31:39.603Z,21.02
2022-12-20T15:34:16.789Z,23.67
2022-12-20T15:36:45.724Z,25.67
2022-12-20T15:39:15.544Z,24.85
2022-12-20T15:41:49.500Z,22.83
2022-12-20T15:44:23.639Z,25.25
2022-12-20T15:46:56.107Z,27.85
2022-12-20T15:49:28.448Z,27.95
2022-12-20T15:51:58.685Z,25.08
2022-12-20T15:54:37.144Z,26.73
2022-12-20T15:57:08.590Z,26.70
2022-12-20T16:00:00.588Z,24.30
2022-12-20T16:02:35.269Z,25.88
2022-12-20T16:05:16.693Z,28.63
2022-12-20T16:07:47.505Z,28.77
2022-12-20T16:10:18.632Z,33.90
2022-12-20T16:13:12.203Z,30.92
2022-12-20T16:16:08.246Z,28.27
2022-12-20T16:18:41.624Z,28.98
2022-12-20T16:21:32.320Z,24.85
2022-12-20T16:24:17.395Z,31.27
2022-12-20T16:27:13.001Z,33.38
2022-12-20T16:30:28.720Z,30.35
2022-12-20T16:34:29.346Z,34.70
2022-12-20T16:41:10.476Z,33.53
2022-12-20T16:44:15.272Z,30.80
2022-12-20T16:47:20.409Z,35.00
2022-12-20T16:50:18.112Z,34.55
2022-12-20T16:53:05.720Z,36.55
2022-12-20T16:55:40.122Z,34.80
2022-12-20T16:58:52.430Z,37.45
2022-12-20T17:01:46.838Z,34.25
2022-12-20T17:04:22.738Z,37.47
2022-12-20T17:14:29.307Z,40.22
2022-12-20T17:17:03.813Z,36.03
2022-12-20T17:20:42.326Z,34.83
2022-12-20T17:24:09.408Z,36.72
2022-12-20T17:26:57.383Z,37.00
2022-12-20T17:29:27.348Z,38.55
2022-12-20T17:31:57.350Z,37.47
2022-12-20T17:34:30.204Z,38.83
2022-12-20T17:37:02.126Z,40.25
2022-12-20T17:39:31.485Z,37.45
2022-12-20T17:42:02.033Z,35.45
2022-12-20T17:44:31.886Z,37.85
2022-12-20T17:47:01.237Z,37.85
2022-12-20T17:49:29.852Z,37.15
2022-12-20T17:52:03.163Z,35.53
2022-12-20T17:54:39.420Z,44.78
2022-12-20T17:57:15.791Z,40.90
2022-12-20T17:59:45.070Z,37.33
2022-12-20T18:02:23.342Z,37.65
2022-12-20T18:04:52.804Z,36.20
2022-12-20T18:07:21.850Z,40.20
2022-12-20T18:09:51.183Z,41.40
2022-12-20T18:12:22.422Z,46.30
2022-12-20T18:14:52.703Z,42.70
2022-12-20T18:17:21.133Z,41.67
2022-12-20T18:19:53.484Z,39.63
2022-12-20T18:22:21.882Z,38.85
2022-12-20T18:24:50.629Z,44.35
2022-12-20T18:27:23.730Z,38.90
2022-12-20T18:29:57.348Z,42.95
2022-12-20T18:32:25.863Z,42.70
2022-12-20T18:34:54.298Z,44.50
2022-12-20T18:37:23.290Z,60.75
2022-12-20T18:39:51.641Z,54.28
2022-12-20T18:42:20.101Z,44.95
2022-12-20T18:44:50.244Z,49.20
2022-12-20T18:47:20.373Z,50.97
2022-12-20T18:49:49.416Z,52.42
2022-12-20T18:52:18.093Z,49.70
2022-12-20T18:54:46.861Z,54.40
2022-12-20T18:57:15.500Z,51.08
2022-12-20T18:59:44.033Z,56.53
2022-12-20T19:02:15.469Z,56.85
2022-12-20T19:04:46.103Z,60.22
2022-12-20T19:07:15.697Z,60.85
2022-12-20T19:12:41.623Z,62.35
2022-12-20T19:15:11.525Z,60.90
2022-12-20T19:17:40.105Z,66.07
2022-12-20T19:20:11.819Z,64.72
2022-12-20T19:22:40.295Z,66.28
2022-12-20T19:25:09.709Z,66.05
2022-12-20T19:27:38.659Z,68.47
2022-12-20T19:30:09.804Z,65.82
2022-12-20T19:32:40.459Z,65.95
2022-12-20T19:35:45.077Z,71.47
2022-12-20T19:38:00.123Z,79.00
2022-12-20T19:40:30.553Z,74.53
2022-12-20T19:42:59.112Z,77.72
2022-12-20T19:45:27.898Z,86.72
2022-12-20T19:47:56.928Z,80.93
2022-12-20T19:50:30.628Z,76.80
2022-12-20T19:53:01.733Z,80.95
2022-12-20T19:58:26.353Z,79.93
2022-12-20T20:00:55.783Z,82.32
2022-12-20T20:03:24.665Z,86.47
2022-12-20T20:05:57.282Z,86.10
2022-12-20T20:08:25.993Z,78.78
2022-12-20T20:10:55.286Z,81.38
2022-12-20T20:13:25.268Z,89.60
2022-12-20T20:15:55.194Z,86.80
2022-12-20T20:18:24.450Z,83.90
2022-12-20T20:20:54.706Z,89.82
2022-12-20T20:23:23.728Z,95.03
2022-12-20T20:25:56.848Z,101.78
2022-12-20T20:28:31.712Z,93.95
2022-12-20T20:31:02.731Z,87.90
2022-12-20T20:33:34.328Z,93.93
2022-12-20T20:36:06.048Z,90.57
2022-12-20T20:38:41.484Z,97.35
2022-12-20T20:41:10.668Z,100.63
2022-12-20T20:43:42.447Z,88.35
2022-12-20T20:46:14.009Z,95.72
2022-12-20T20:48:45.272Z,94.90
2022-12-20T20:51:21.104Z,92.00
2022-12-20T20:53:49.600Z,85.75
2022-12-20T20:56:18.453Z,101.35
2022-12-20T20:58:47.224Z,115.13
2022-12-20T21:01:21.208Z,97.35
2022-12-20T21:03:50.034Z,99.75
2022-12-20T21:06:40.639Z,108.45
2022-12-20T21:09:08.746Z,117.25
2022-12-20T21:11:37.650Z,105.30
2022-12-20T21:14:07.364Z,96.40
2022-12-20T21:16:36.946Z,96.60
2022-12-20T21:19:06.640Z,92.55
2022-12-20T21:21:36.601Z,96.07
2022-12-20T21:24:05.686Z,93.78
2022-12-20T21:26:34.171Z,88.93
2022-12-20T21:29:03.241Z,94.30
2022-12-20T21:31:32.194Z,91.13
2022-12-20T21:34:00.875Z,89.63
2022-12-20T21:36:29.902Z,102.30
2022-12-20T21:39:00.435Z,83.28
2022-12-20T21:41:30.526Z,88.10
2022-12-20T21:44:01.976Z,89.22
2022-12-20T21:46:33.576Z,95.18
2022-12-20T21:49:03.083Z,92.22
2022-12-20T21:51:32.332Z,87.70
2022-12-20T21:54:04.241Z,86.65
2022-12-20T21:56:35.724Z,78.43
2022-12-20T21:59:05.533Z,87.95
2022-12-20T22:01:35.721Z,91.85
2022-12-20T22:04:06.979Z,168.32
2022-12-20T22:06:36.160Z,100.18
2022-12-20T22:09:08.814Z,80.28
2022-12-20T22:11:38.682Z,84.82
2022-12-20T22:14:09.192Z,72.38
2022-12-20T22:16:38.507Z,83.30
2022-12-20T22:19:06.984Z,83.25
2022-12-20T22:21:36.782Z,80.55
2022-12-20T22:24:07.896Z,81.93
2022-12-20T22:26:37.011Z,80.30
2022-12-20T22:29:08.027Z,82.85
2022-12-20T22:31:39.062Z,83.95
2022-12-20T22:34:07.787Z,75.82
2022-12-20T22:36:37.028Z,80.78
2022-12-20T22:39:09.462Z,80.45
2022-12-20T22:41:39.107Z,85.60
2022-12-20T22:44:09.996Z,94.50
2022-12-20T22:46:39.061Z,82.20
2022-12-20T22:49:08.150Z,82.55
2022-12-20T22:51:37.245Z,71.03
2022-12-20T22:54:07.516Z,81.88
2022-12-20T22:56:36.011Z,71.90
2022-12-20T22:59:08.114Z,74.25
2022-12-20T23:01:38.873Z,81.03
2022-12-20T23:04:08.581Z,85.72
2022-12-20T23:06:37.721Z,70.43
2022-12-20T23:09:08.548Z,76.78
2022-12-20T23:11:54.677Z,76.88
2022-12-20T23:14:42.067Z,71.60
2022-12-20T23:17:12.134Z,81.47
2022-12-20T23:19:58.652Z,80.57
2022-12-20T23:22:40.954Z,87.85
2022-12-20T23:25:17.544Z,84.28
2022-12-20T23:27:49.300Z,76.75
2022-12-20T23:30:22.100Z,83.72
2022-12-20T23:32:52.665Z,88.72
2022-12-20T23:35:22.437Z,84.03
2022-12-20T23:37:51.119Z,90.15
2022-12-20T23:40:21.794Z,89.22
2022-12-20T23:42:54.374Z,88.85
2022-12-20T23:45:23.260Z,92.07
2022-12-20T23:47:51.719Z,84.20
2022-12-20T23:50:20.145Z,89.22
2022-12-20T23:52:48.993Z,82.68
2022-12-20T23:55:17.638Z,85.30
2022-12-20T23:57:49.619Z,99.57
